Time;durP1;ratioP1;P1;durP2;ratioP2;P2;SDS_P1;SDS_P2;PMS_P1;PMS_P2;Temp;Humidity;BMP_temperature;BMP_pressure;BME280_temperature;BME280_humidity;BME280_pressure;Samples;Min_cycle;Max_cycle;Signal;HPM_P1;HPM_P2
2021/12/04 00:02:32;;;;;;;5.03;3.40;;;;;;;2.46;86.73;99901.97;10521810;28;20111;-89
2021/12/04 00:07:34;;;;;;;3.93;2.93;;;;;;;2.48;86.46;99886.56;10518487;28;20736;-87
2021/12/04 00:12:37;;;;;;;;;;;;;;;2.43;86.68;99888.88;10503548;28;20363;-89
2021/12/04 00:17:38;;;;;;;5.15;3.47;;;;;;;2.42;87.17;99878.44;10491090;28;20355;-89
2021/12/04 00:22:38;;;;;;;5.80;3.80;;;;;;;2.33;88.33;99860.66;10537333;28;20112;-89
2021/12/04 00:27:39;;;;;;;9.77;6.10;;;;;;;2.28;88.79;99857.78;10503910;28;20051;-88
2021/12/04 00:32:42;;;;;;;9.25;6.63;;;;;;;2.24;89.29;99860.06;10503027;28;20067;-89
2021/12/04 00:53:39;;;;;;;8.45;5.82;;;;;;;2.13;90.68;99823.22;10503632;28;20028;-89
2021/12/04 00:58:40;;;;;;;6.57;4.55;;;;;;;2.18;90.68;99814.09;10513300;28;20479;-87
2021/12/04 01:03:40;;;;;;;6.43;4.00;;;;;;;2.10;90.91;99811.03;10509588;28;20039;-87
2021/12/04 01:08:41;;;;;;;5.90;3.65;;;;;;;2.09;90.63;99823.81;10527348;28;20066;-88
2021/12/04 01:13:41;;;;;;;15.40;8.73;;;;;;;2.18;91.30;99821.81;10508658;28;20437;-86
2021/12/04 01:18:44;;;;;;;4.63;2.95;;;;;;;2.21;90.81;99809.13;10507297;28;20016;-85
2021/12/04 01:23:44;;;;;;;4.60;3.15;;;;;;;2.14;90.87;99812.09;10505903;28;20051;-86
2021/12/04 01:28:45;;;;;;;4.97;3.33;;;;;;;2.13;91.09;99818.06;10543104;28;20074;-86
2021/12/04 01:33:45;;;;;;;4.93;2.67;;;;;;;2.15;91.19;99804.47;10536743;28;20132;-85
2021/12/04 01:38:46;;;;;;;4.70;3.03;;;;;;;2.18;91.24;99811.50;10543716;28;20117;-86
2021/12/04 01:43:46;;;;;;;4.97;2.83;;;;;;;2.18;90.78;99811.50;10525769;28;20036;-86
2021/12/04 01:48:47;;;;;;;5.22;3.22;;;;;;;2.19;91.07;99813.28;10525513;28;20119;-86
2021/12/04 01:53:47;;;;;;;5.05;3.50;;;;;;;2.18;91.10;99809.81;10542554;28;20028;-86
2021/12/04 01:58:48;;;;;;;5.65;3.65;;;;;;;2.24;91.42;99793.81;10508175;28;20032;-86
2021/12/04 02:03:48;;;;;;;5.82;3.50;;;;;;;2.23;90.97;99794.63;10524130;28;20123;-87
2021/12/04 02:08:49;;;;;;;8.25;4.93;;;;;;;2.27;90.54;99793.13;10507978;28;20032;-86
2021/12/04 02:13:49;;;;;;;8.27;4.68;;;;;;;2.30;91.72;99791.63;10507657;28;20020;-87
2021/12/04 02:18:50;;;;;;;10.80;5.75;;;;;;;2.34;90.91;99783.28;10525664;28;20414;-87
2021/12/04 02:23:50;;;;;;;8.88;5.65;;;;;;;2.29;90.97;99774.34;10506779;28;20052;-86
2021/12/04 02:28:51;;;;;;;7.05;5.13;;;;;;;2.32;91.16;99771.06;10541371;28;20113;-86
2021/12/04 02:33:52;;;;;;;7.10;5.45;;;;;;;2.33;91.04;99770.28;10507119;28;20016;-86
2021/12/04 02:38:52;;;;;;;8.73;5.45;;;;;;;2.32;91.11;99755.59;10522886;28;20036;-86
2021/12/04 02:43:53;;;;;;;10.52;5.85;;;;;;;2.33;90.98;99735.00;10506371;28;20059;-86
2021/12/04 02:48:53;;;;;;;9.25;5.38;;;;;;;2.32;90.93;99732.34;10522884;28;20063;-86
2021/12/04 02:53:54;;;;;;;8.18;6.00;;;;;;;2.33;91.47;99727.25;10522620;28;20460;-86
2021/12/04 02:59:00;;;;;;;8.60;5.55;;;;;;;2.39;91.00;99712.94;10539299;28;20024;-86
2021/12/04 03:04:08;;;;;;;9.00;6.20;;;;;;;2.34;91.24;99694.59;10523500;28;20051;-86
2021/12/04 03:09:09;;;;;;;6.85;4.88;;;;;;;2.34;91.48;99687.72;10489137;28;20035;-85
2021/12/04 03:14:11;;;;;;;7.45;5.57;;;;;;;2.34;91.04;99689.44;10504483;28;20020;-86
2021/12/04 03:19:11;;;;;;;7.40;4.97;;;;;;;2.35;91.57;99693.81;10522123;28;20016;-85
2021/12/04 03:24:14;;;;;;;10.48;5.90;;;;;;;2.32;91.03;99676.41;10521387;28;20028;-84
2021/12/04 03:29:18;;;;;;;9.80;5.47;;;;;;;2.32;91.33;99671.25;10521831;28;20020;-85
2021/12/04 03:44:57;;;;;;;8.40;6.38;;;;;;;2.28;91.21;99666.69;10507471;28;20028;-85
2021/12/04 03:49:57;;;;;;;8.95;6.78;;;;;;;2.29;91.61;99659.84;10503338;28;20428;-85
2021/12/04 03:54:58;;;;;;;8.52;6.45;;;;;;;2.26;91.11;99654.50;10503091;28;20074;-85
2021/12/04 04:00:02;;;;;;;9.38;6.70;;;;;;;2.24;91.51;99651.81;10503737;28;20036;-85
2021/12/04 04:05:02;;;;;;;11.05;6.90;;;;;;;2.23;91.86;99644.88;10521454;28;20024;-84
2021/12/04 04:10:04;;;;;;;11.45;7.53;;;;;;;2.26;91.68;99639.88;10519371;28;20483;-85
2021/12/04 04:15:05;;;;;;;11.30;6.57;;;;;;;2.26;91.79;99644.19;10519809;28;20028;-85
2021/12/04 04:20:06;;;;;;;11.93;7.47;;;;;;;2.24;91.79;99635.44;10519871;28;20082;-85
2021/12/04 04:25:07;;;;;;;9.80;6.53;;;;;;;2.24;91.70;99643.19;10519174;28;20028;-85
2021/12/04 04:30:16;;;;;;;11.77;8.37;;;;;;;2.22;92.13;99635.34;10519762;28;20031;-85
2021/12/04 04:35:26;;;;;;;7.55;5.10;;;;;;;2.25;91.90;99638.09;10519666;28;20020;-85
2021/12/04 04:57:26;;;;;;;8.75;5.80;;;;;;;2.25;91.84;99638.09;10520568;28;20040;-85
2021/12/04 05:12:23;;;;;;;5.20;3.55;;;;;;;2.31;91.79;99606.63;10520847;28;20024;-85
2021/12/04 05:17:31;;;;;;;6.45;3.67;;;;;;;2.31;92.02;99604.91;10517297;28;20518;-85
2021/12/04 05:22:32;;;;;;;8.10;3.95;;;;;;;2.31;92.09;99616.94;10524875;28;20040;-87
2021/12/04 05:27:33;;;;;;;8.50;4.90;;;;;;;2.30;91.97;99603.13;10500817;28;20468;-85
2021/12/04 05:32:33;;;;;;;4.88;3.50;;;;;;;2.29;92.04;99603.94;10540321;28;20056;-86
2021/12/04 05:37:34;;;;;;;5.70;3.67;;;;;;;2.27;91.88;99592.63;10492047;28;20040;-88
2021/12/04 05:42:34;;;;;;;4.90;2.88;;;;;;;2.27;92.25;99589.16;10524872;28;20069;-87
2021/12/04 05:47:43;;;;;;;6.05;3.78;;;;;;;2.26;92.25;99585.66;10508505;28;20086;-85
2021/12/04 05:57:44;;;;;;;6.28;4.13;;;;;;;2.42;92.22;99587.50;10524124;28;20115;-82
2021/12/04 06:02:45;;;;;;;5.38;2.70;;;;;;;2.36;91.99;99587.13;10539047;28;20054;-86
2021/12/04 06:07:46;;;;;;;4.43;2.75;;;;;;;2.34;92.51;99583.56;10540574;28;20044;-86
2021/12/04 06:12:46;;;;;;;6.78;3.42;;;;;;;2.33;91.87;99580.06;10503803;28;20118;-86
2021/12/04 06:17:49;;;;;;;6.50;4.57;;;;;;;2.36;92.41;99584.53;10513100;28;20480;-85
2021/12/04 06:22:50;;;;;;;9.77;6.60;;;;;;;2.38;92.04;99574.28;10508948;28;20112;-85
2021/12/04 06:27:50;;;;;;;10.00;6.47;;;;;;;2.39;92.17;99558.91;10500518;28;20038;-85
2021/12/04 06:32:52;;;;;;;7.60;4.38;;;;;;;2.38;92.29;99567.44;10504996;28;20028;-85
2021/12/04 06:37:53;;;;;;;9.57;6.82;;;;;;;2.43;92.23;99578.03;10505866;28;20032;-86
2021/12/04 06:42:55;;;;;;;13.90;10.00;;;;;;;2.43;92.24;99565.13;10516631;28;20043;-84
2021/12/04 06:48:17;;;;;;;18.10;10.00;;;;;;;2.42;92.07;99572.00;10479705;28;20131;-85
2021/12/04 06:58:21;;;;;;;14.38;9.23;;;;;;;2.43;92.25;99575.47;10502027;28;20024;-85
2021/12/04 07:03:22;;;;;;;15.57;11.33;;;;;;;2.45;92.33;99587.69;10487612;28;20077;-87
2021/12/04 07:08:22;;;;;;;18.75;12.50;;;;;;;2.43;92.06;99584.13;10521007;28;20552;-85
2021/12/04 07:13:23;;;;;;;17.05;12.32;;;;;;;2.47;92.10;99592.91;10521285;28;20024;-84
2021/12/04 07:18:23;;;;;;;16.38;12.00;;;;;;;2.44;91.77;99590.16;10538489;28;20031;-84
2021/12/04 07:23:24;;;;;;;28.70;13.77;;;;;;;2.42;91.73;99579.75;10520910;28;20016;-85
2021/12/04 07:28:24;;;;;;;22.42;14.90;;;;;;;2.43;91.94;99583.19;10520766;28;20387;-84
2021/12/04 07:33:25;;;;;;;21.65;12.30;;;;;;;2.49;92.30;99583.56;10519912;28;20028;-83
2021/12/04 07:38:26;;;;;;;19.77;12.07;;;;;;;2.49;92.00;99586.16;10519067;28;20500;-84
2021/12/04 07:43:27;;;;;;;22.08;12.50;;;;;;;2.49;91.94;99575.81;10504232;28;20109;-85
2021/12/04 07:48:27;;;;;;;19.45;13.20;;;;;;;2.53;91.93;99579.50;10519297;28;20062;-86
2021/12/04 07:53:29;;;;;;;17.85;11.95;;;;;;;2.58;91.66;99563.44;10503961;28;20030;-85
2021/12/04 07:58:30;;;;;;;14.77;9.50;;;;;;;2.65;91.75;99556.97;10502085;28;20065;-85
2021/12/04 08:03:30;;;;;;;17.30;11.02;;;;;;;2.68;91.70;99557.13;10537845;28;20042;-85
2021/12/04 08:08:31;;;;;;;14.90;9.32;;;;;;;2.74;91.81;99554.91;10537506;28;20025;-86
2021/12/04 08:13:31;;;;;;;12.57;7.70;;;;;;;2.83;91.12;99549.38;10537766;28;20505;-86
2021/12/04 08:18:32;;;;;;;14.65;8.13;;;;;;;2.91;91.10;99547.25;10519481;28;20032;-86
2021/12/04 08:23:32;;;;;;;15.68;9.68;;;;;;;2.94;90.99;99556.03;10519112;28;20074;-85
2021/12/04 08:28:33;;;;;;;12.38;8.40;;;;;;;3.06;90.96;99554.97;10519441;28;20067;-85
2021/12/04 08:33:33;;;;;;;10.75;7.13;;;;;;;3.14;90.53;99555.41;10519278;28;20028;-82
2021/12/04 08:38:35;;;;;;;15.63;7.25;;;;;;;3.21;90.32;99548.06;10501700;28;20135;-85
2021/12/04 08:43:36;;;;;;;11.32;7.70;;;;;;;3.41;89.83;99525.00;10536894;28;20425;-86
2021/12/04 08:48:36;;;;;;;9.50;6.38;;;;;;;3.52;89.01;99521.28;10536475;28;20063;-88
2021/12/04 08:53:37;;;;;;;13.00;7.43;;;;;;;3.77;88.14;99520.03;10518215;28;20102;-87
2021/12/04 08:58:40;;;;;;;10.68;7.47;;;;;;;3.97;87.23;99517.59;10526306;28;20066;-87
2021/12/04 09:03:43;;;;;;;12.82;5.85;;;;;;;4.13;86.79;99510.63;10526485;28;20032;-86
2021/12/04 09:08:44;;;;;;;10.57;6.95;;;;;;;4.19;85.34;99498.00;10510535;28;20032;-86
2021/12/04 09:13:44;;;;;;;10.10;5.85;;;;;;;4.34;84.36;99497.91;10526519;28;20531;-87
2021/12/04 09:18:45;;;;;;;9.27;6.28;;;;;;;4.33;83.89;99497.00;10508776;28;20036;-87
2021/12/04 09:23:50;;;;;;;9.07;5.43;;;;;;;4.41;84.11;99492.22;10543918;28;20420;-88
2021/12/04 09:28:59;;;;;;;7.35;5.13;;;;;;;4.43;83.49;99490.59;10526865;28;20063;-87
2021/12/04 09:34:22;;;;;;;10.90;5.55;;;;;;;4.18;83.64;99484.16;10525629;28;20395;-86
2021/12/04 10:22:02;;;;;;;23.30;17.17;;;;;;;4.49;81.72;99439.09;10523623;28;20043;-87
2021/12/04 10:32:41;;;;;;;22.30;16.05;;;;;;;4.40;83.62;99429.13;10542127;28;20403;-87
2021/12/04 10:38:03;;;;;;;12.18;8.15;;;;;;;4.41;83.31;99410.19;10507737;28;20047;-86
2021/12/04 10:43:05;;;;;;;10.02;5.03;;;;;;;4.53;82.27;99409.00;10524603;28;20396;-87
2021/12/04 10:48:08;;;;;;;;;;;;;;;4.67;81.55;99386.38;10505676;28;20074;-87
2021/12/04 10:53:14;;;;;;;9.40;4.80;;;;;;;4.79;81.50;99378.25;10521700;28;19912;-87
2021/12/04 10:58:51;;;;;;;6.95;4.93;;;;;;;4.78;81.18;99374.78;10520628;28;20028;-87
2021/12/04 11:41:17;;;;;;;14.02;10.25;;;;;;;5.01;81.29;99289.41;10494830;28;20462;-84
2021/12/04 11:46:25;;;;;;;20.27;11.45;;;;;;;5.01;80.39;99279.03;10480474;28;20048;-85
2021/12/04 11:51:26;;;;;;;17.73;11.85;;;;;;;5.23;81.10;99282.56;10479954;28;20044;-85
2021/12/04 11:56:28;;;;;;;18.15;14.25;;;;;;;5.14;80.79;99273.56;10460738;28;20036;-84
2021/12/04 12:01:33;;;;;;;21.17;13.87;;;;;;;4.88;80.98;99271.53;10493628;28;20151;-85
2021/12/04 12:06:37;;;;;;;17.27;13.70;;;;;;;4.63;82.07;99279.06;10477551;28;20032;-85
2021/12/04 12:11:49;;;;;;;19.10;12.52;;;;;;;4.46;83.12;99279.97;10493974;28;20400;-84
2021/12/04 12:16:52;;;;;;;17.17;11.52;;;;;;;4.29;84.29;99274.03;10478209;28;20067;-84
2021/12/04 12:22:01;;;;;;;15.48;12.90;;;;;;;4.20;85.77;99279.66;10476495;28;20098;-85
2021/12/04 12:32:22;;;;;;;20.85;17.30;;;;;;;4.10;86.88;99283.50;10501924;28;20036;-84
2021/12/04 12:37:27;;;;;;;19.90;11.87;;;;;;;3.97;87.14;99294.97;10488920;28;20044;-85
2021/12/04 12:42:30;;;;;;;15.85;10.20;;;;;;;3.85;87.81;99297.84;10493553;28;20085;-86
2021/12/04 12:47:32;;;;;;;16.00;11.43;;;;;;;3.77;88.44;99291.41;10508767;28;20089;-84
2021/12/04 12:52:37;;;;;;;18.92;13.05;;;;;;;3.74;89.12;99292.13;10526988;28;20467;-85
2021/12/04 12:57:40;;;;;;;16.30;10.88;;;;;;;3.76;89.54;99284.47;10527635;28;20016;-85
2021/12/04 13:13:38;;;;;;;20.35;13.95;;;;;;;3.71;89.99;99252.28;10544863;28;20475;-86
2021/12/04 13:18:39;;;;;;;21.98;13.15;;;;;;;3.73;89.96;99248.94;10525658;28;20107;-85
2021/12/04 13:23:39;;;;;;;20.90;14.00;;;;;;;3.80;90.02;99239.81;10508575;28;20105;-85
2021/12/04 13:28:43;;;;;;;20.80;14.05;;;;;;;3.81;89.88;99244.16;10525797;28;20470;-85
2021/12/04 13:33:48;;;;;;;19.77;13.25;;;;;;;3.87;90.55;99251.31;10542096;28;20488;-85
2021/12/04 13:38:59;;;;;;;21.35;14.75;;;;;;;3.85;90.55;99263.31;10543500;28;20101;-84
2021/12/04 13:44:01;;;;;;;23.13;15.65;;;;;;;3.83;90.97;99263.25;10483997;28;20369;-85
2021/12/04 13:49:02;;;;;;;25.30;14.73;;;;;;;3.83;91.36;99268.41;10500395;28;20020;-85
2021/12/04 13:54:02;;;;;;;24.42;15.75;;;;;;;3.82;91.37;99274.41;10491063;28;20036;-85
2021/12/04 13:59:04;;;;;;;19.98;13.73;;;;;;;3.81;90.62;99270.91;10506867;28;20077;-85
2021/12/04 14:04:07;;;;;;;18.98;13.60;;;;;;;3.80;91.26;99283.78;10507005;28;20310;-86
2021/12/04 14:09:07;;;;;;;22.67;14.32;;;;;;;3.79;90.86;99276.84;10524141;28;20039;-84
2021/12/04 14:14:29;;;;;;;18.70;13.30;;;;;;;3.70;90.84;99285.03;10523159;28;20357;-83
2021/12/04 14:19:29;;;;;;;17.52;13.68;;;;;;;3.66;91.55;99288.28;10525830;28;20049;-84
2021/12/04 14:24:41;;;;;;;22.35;15.68;;;;;;;3.59;91.16;99284.50;10523441;28;20144;-85
2021/12/04 14:29:44;;;;;;;17.00;11.27;;;;;;;3.59;90.96;99279.34;10497324;28;20037;-87
2021/12/04 14:34:44;;;;;;;18.52;12.82;;;;;;;3.58;90.98;99282.72;10480803;28;20031;-83
2021/12/04 14:39:48;;;;;;;15.10;9.52;;;;;;;3.56;91.12;99289.53;10539389;28;20044;-85
2021/12/04 14:44:55;;;;;;;17.35;12.18;;;;;;;3.52;91.20;99285.00;10506331;28;20047;-85
2021/12/04 14:49:59;;;;;;;21.40;11.40;;;;;;;3.50;91.88;99292.66;10501261;28;20097;-84
2021/12/04 14:55:30;;;;;;;17.58;12.30;;;;;;;3.50;91.51;99299.56;10503646;28;20480;-85
2021/12/04 15:00:36;;;;;;;18.67;13.27;;;;;;;3.49;91.39;99315.91;10480630;28;20047;-84
2021/12/04 15:05:41;;;;;;;22.63;14.90;;;;;;;3.43;92.31;99326.81;10503467;28;20031;-86
2021/12/04 15:10:44;;;;;;;18.05;12.15;;;;;;;3.40;91.81;99342.16;10521377;28;20510;-86
2021/12/04 15:15:47;;;;;;;24.23;15.65;;;;;;;3.40;91.84;99343.88;10503692;28;20404;-86
2021/12/04 15:20:59;;;;;;;20.55;15.07;;;;;;;3.38;92.14;99355.03;10504822;28;20028;-87
2021/12/04 15:26:06;;;;;;;24.08;16.30;;;;;;;3.37;92.33;99371.34;10487620;28;20383;-87
2021/12/04 15:31:07;;;;;;;20.50;14.80;;;;;;;3.37;92.38;99373.03;10504762;28;20502;-86
2021/12/04 15:36:20;;;;;;;18.95;14.82;;;;;;;3.38;92.05;99383.47;10537334;28;20067;-88
2021/12/04 15:41:46;;;;;;;23.00;14.50;;;;;;;3.37;92.37;99381.69;10505241;28;20059;-87
2021/12/04 15:47:07;;;;;;;18.60;14.75;;;;;;;3.36;92.35;99391.94;10537920;28;20521;-87
2021/12/04 15:57:38;;;;;;;18.33;12.27;;;;;;;3.33;92.56;99415.97;10508332;28;20126;-83
2021/12/04 16:02:40;;;;;;;17.88;12.00;;;;;;;3.40;92.50;99430.09;10519719;28;20111;-84
2021/12/04 16:07:40;;;;;;;18.50;10.32;;;;;;;3.42;91.99;99435.38;10537596;28;20089;-82
2021/12/04 16:12:41;;;;;;;13.27;8.82;;;;;;;3.43;92.48;99447.50;10519916;28;20067;-84
2021/12/04 16:17:41;;;;;;;13.15;8.52;;;;;;;3.44;92.17;99449.28;10519928;28;20032;-85
2021/12/04 16:22:42;;;;;;;19.30;11.38;;;;;;;3.44;92.50;99451.88;10514484;28;20016;-93
2021/12/04 16:38:04;;;;;;;23.25;11.55;;;;;;;3.41;92.73;99472.38;10501179;28;20093;-87
2021/12/04 16:43:12;;;;;;;19.55;11.18;;;;;;;3.42;92.36;99484.50;10504431;28;20035;-84
2021/12/04 16:48:13;;;;;;;23.27;12.15;;;;;;;3.35;92.65;99497.13;10499443;28;20100;-90
2021/12/04 16:58:32;;;;;;;17.65;11.23;;;;;;;3.02;91.98;99503.88;10518682;28;20024;-90
2021/12/04 17:03:33;;;;;;;16.55;11.38;;;;;;;2.87;92.18;99506.50;10499713;28;20036;-90
2021/12/04 17:08:35;;;;;;;20.95;11.13;;;;;;;2.75;92.11;99523.09;10499737;28;20119;-89
2021/12/04 17:13:35;;;;;;;13.57;7.32;;;;;;;2.60;92.32;99517.06;10467097;28;20031;-89
2021/12/04 17:18:40;;;;;;;22.05;10.48;;;;;;;2.50;92.39;99531.13;10542136;28;20048;-84
2021/12/04 17:23:40;;;;;;;18.20;9.23;;;;;;;2.51;92.51;99532.88;10523932;28;20063;-87
2021/12/04 17:28:45;;;;;;;15.52;9.30;;;;;;;2.41;92.84;99535.75;10504587;28;20142;-83
2021/12/04 17:33:46;;;;;;;37.55;13.48;;;;;;;2.33;92.89;99538.75;10486971;28;20028;-83
2021/12/04 17:38:47;;;;;;;24.02;13.63;;;;;;;2.26;92.82;99546.94;10502711;28;20046;-79
2021/12/04 17:43:47;;;;;;;28.08;13.82;;;;;;;2.22;92.79;99547.56;10541574;28;20036;-82
2021/12/04 17:48:49;;;;;;;38.00;20.02;;;;;;;2.22;93.10;99547.56;10523766;28;20042;-82
2021/12/04 17:53:51;;;;;;;27.20;14.50;;;;;;;2.26;92.86;99551.22;10540877;28;20448;-85
2021/12/04 17:58:52;;;;;;;37.22;17.75;;;;;;;2.17;92.86;99554.13;10505953;28;20024;-82
2021/12/04 18:03:52;;;;;;;31.23;15.20;;;;;;;2.08;92.95;99556.16;10505669;28;20036;-82
2021/12/04 18:08:53;;;;;;;34.08;13.70;;;;;;;2.07;93.03;99573.34;10504993;28;20113;-83
2021/12/04 18:13:56;;;;;;;22.33;12.40;;;;;;;2.07;93.26;99572.44;10538751;28;20077;-84
2021/12/04 18:18:57;;;;;;;28.20;16.17;;;;;;;2.11;92.99;99585.66;10504010;28;20060;-81
2021/12/04 18:23:58;;;;;;;33.15;15.65;;;;;;;2.11;93.23;99588.22;10505427;28;20070;-79
2021/12/04 18:28:59;;;;;;;34.05;14.50;;;;;;;2.13;93.03;99585.72;10522475;28;20020;-80
2021/12/04 18:33:59;;;;;;;32.97;14.45;;;;;;;2.17;92.94;99596.34;10504960;28;20032;-79
2021/12/04 18:39:00;;;;;;;39.38;16.33;;;;;;;2.18;93.09;99598.13;10522897;28;20061;-81
2021/12/04 18:44:03;;;;;;;37.40;16.13;;;;;;;2.18;93.32;99602.38;10522942;28;20032;-85
2021/12/04 18:49:05;;;;;;;27.13;12.77;;;;;;;2.03;92.63;99603.22;10505848;28;20131;-84
2021/12/04 18:54:06;;;;;;;34.03;15.40;;;;;;;1.99;92.81;99605.53;10504378;28;20040;-81
2021/12/04 18:59:07;;;;;;;27.65;12.00;;;;;;;1.98;92.72;99607.22;10504971;28;20028;-87
2021/12/04 19:04:08;;;;;;;29.17;11.32;;;;;;;2.02;92.66;99610.91;10520756;28;20032;-83
2021/12/04 19:09:10;;;;;;;25.20;12.18;;;;;;;2.04;92.46;99622.22;10524178;28;20035;-85
2021/12/04 19:14:11;;;;;;;22.40;10.10;;;;;;;1.95;92.14;99612.19;10490554;28;20043;-82
2021/12/04 19:19:11;;;;;;;27.30;13.23;;;;;;;1.98;92.05;99630.44;10484723;28;20336;-83
2021/12/04 19:24:14;;;;;;;25.38;12.05;;;;;;;2.02;91.91;99637.59;10536143;28;20020;-83
2021/12/04 19:29:18;;;;;;;30.52;15.18;;;;;;;2.09;92.36;99633.72;10503175;28;20040;-82
2021/12/04 19:55:38;;;;;;;19.45;10.27;;;;;;;1.26;91.54;99661.19;10525034;28;20074;-83
2021/12/04 20:00:56;;;;;;;26.20;11.68;;;;;;;1.10;92.13;99664.44;10519505;28;20082;-84
2021/12/04 20:16:23;;;;;;;23.70;11.10;;;;;;;1.53;92.62;99673.19;10518660;28;20020;-84
2021/12/04 20:21:25;;;;;;;19.88;10.13;;;;;;;1.59;92.99;99673.56;10516699;28;20012;-84
2021/12/04 20:26:43;;;;;;;20.50;11.00;;;;;;;1.45;92.57;99676.16;10516637;28;20027;-85
2021/12/04 21:50:59;;;;;;;19.95;6.82;;;;;;;0.61;91.26;99692.94;10542944;28;20114;-85
2021/12/04 21:56:17;;;;;;;26.65;7.38;;;;;;;0.67;92.19;99697.63;10524770;28;20535;-85
2021/12/04 22:12:06;;;;;;;15.65;7.13;;;;;;;0.39;91.61;99700.88;10527318;28;20040;-85
2021/12/04 22:22:43;;;;;;;16.63;5.78;;;;;;;0.47;91.51;99704.00;10525178;28;20492;-84
2021/12/04 22:59:39;;;;;;;12.68;6.10;;;;;;;1.57;90.14;99719.91;10523012;28;20032;-84
2021/12/04 23:15:14;;;;;;;15.25;5.40;;;;;;;1.64;88.79;99733.22;10493885;28;20464;-85
2021/12/04 23:52:14;;;;;;;13.10;5.38;;;;;;;1.72;87.99;99730.31;10520096;28;20391;-85
